Time;durP1;ratioP1;P1;durP2;ratioP2;P2;SDS_P1;SDS_P2;PMS_P1;PMS_P2;Temp;Humidity;BMP_temperature;BMP_pressure;BME280_temperature;BME280_humidity;BME280_pressure;Samples;Min_cycle;Max_cycle;Signal;HPM_P1;HPM_P2
2021/09/29 00:01:43;;;;;;;6.63;5.40;;;;;;;12.11;74.03;99109.53;2625484;54;20050;-70
2021/09/29 00:04:13;;;;;;;11.73;6.60;;;;;;;12.15;73.88;99108.94;2623848;47;20139;-71
2021/09/29 00:06:43;;;;;;;11.30;5.93;;;;;;;12.16;74.32;99101.81;2624868;47;20023;-69
2021/09/29 00:09:13;;;;;;;7.57;5.78;;;;;;;12.21;74.36;99099.41;2624091;47;20130;-70
2021/09/29 00:11:43;;;;;;;7.32;6.03;;;;;;;12.27;74.23;99105.75;2623949;54;20034;-69
2021/09/29 00:14:15;;;;;;;7.57;5.70;;;;;;;12.28;74.03;99105.53;2623617;47;20030;-70
2021/09/29 00:16:45;;;;;;;10.55;5.45;;;;;;;12.24;74.25;99100.84;2623900;54;20090;-70
2021/09/29 00:19:15;;;;;;;6.82;5.50;;;;;;;12.30;74.32;99087.63;2624023;47;20553;-70
2021/09/29 00:21:45;;;;;;;7.00;5.93;;;;;;;12.31;73.85;99077.84;2624576;47;20045;-69
2021/09/29 00:24:15;;;;;;;9.60;6.10;;;;;;;12.16;74.06;99083.25;2624214;47;20837;-71
2021/09/29 00:26:44;;;;;;;11.65;6.68;;;;;;;12.19;73.89;99092.66;2624658;39;20409;-71
2021/09/29 00:29:16;;;;;;;8.60;6.32;;;;;;;12.13;74.63;99091.63;2621920;54;20042;-71
2021/09/29 00:31:46;;;;;;;7.82;6.63;;;;;;;12.10;74.19;99089.34;2624248;54;20046;-71
2021/09/29 00:34:24;;;;;;;12.50;7.50;;;;;;;12.09;74.92;99088.53;2623311;54;20023;-71
2021/09/29 00:36:54;;;;;;;9.93;6.55;;;;;;;12.18;75.16;99081.25;2622073;54;20029;-63
2021/09/29 00:39:23;;;;;;;11.40;6.20;;;;;;;12.23;75.05;99089.41;2618100;54;20045;-64
2021/09/29 00:41:53;;;;;;;9.65;6.25;;;;;;;12.27;74.70;99089.84;2618536;54;20030;-64
2021/09/29 00:44:26;;;;;;;9.63;6.30;;;;;;;12.33;74.95;99092.53;2618652;54;20026;-64
2021/09/29 00:46:57;;;;;;;8.73;6.45;;;;;;;12.37;74.76;99083.19;2618664;54;20027;-66
2021/09/29 00:49:26;;;;;;;10.27;6.85;;;;;;;12.34;74.57;99077.44;2617823;54;20026;-65
2021/09/29 00:51:59;;;;;;;8.52;6.40;;;;;;;12.33;74.54;99081.13;2619008;39;20449;-65
2021/09/29 00:54:30;;;;;;;6.65;5.95;;;;;;;12.28;74.65;99087.00;2618507;54;20038;-65
2021/09/29 00:57:00;;;;;;;8.38;6.20;;;;;;;12.22;74.40;99081.69;2618672;54;20027;-66
2021/09/29 00:59:32;;;;;;;9.80;6.30;;;;;;;12.19;74.43;99080.22;2618564;54;20569;-65
2021/09/29 01:02:02;;;;;;;11.80;6.05;;;;;;;12.13;75.00;99081.03;2618813;54;20557;-65
2021/09/29 01:04:33;;;;;;;10.10;6.10;;;;;;;12.11;75.02;99091.78;2618747;39;20446;-65
2021/09/29 01:07:09;;;;;;;8.32;7.18;;;;;;;12.10;74.64;99090.16;2618492;54;20042;-64
2021/09/29 01:09:45;;;;;;;7.45;6.65;;;;;;;12.06;74.79;99086.28;2618615;54;20023;-64
2021/09/29 01:12:26;;;;;;;8.80;6.80;;;;;;;12.04;75.10;99077.72;2618375;47;20050;-64
2021/09/29 01:15:04;;;;;;;8.93;6.80;;;;;;;12.06;74.72;99080.97;2619311;54;20068;-64
2021/09/29 01:17:38;;;;;;;9.27;6.72;;;;;;;12.11;74.71;99089.16;2619765;54;20082;-64
2021/09/29 01:20:10;;;;;;;6.97;6.28;;;;;;;12.06;74.70;99085.47;2619495;54;20033;-64
2021/09/29 01:23:20;;;;;;;10.93;6.37;;;;;;;12.13;75.18;99081.03;2618980;47;20038;-64
2021/09/29 01:25:55;;;;;;;6.38;5.78;;;;;;;12.13;75.03;99087.13;2618719;54;20026;-65
2021/09/29 01:28:31;;;;;;;8.50;6.50;;;;;;;12.11;74.56;99075.09;2618171;54;20030;-64
2021/09/29 01:31:02;;;;;;;9.60;6.28;;;;;;;12.06;75.08;99080.97;2618668;54;20041;-65
2021/09/29 01:33:34;;;;;;;9.18;6.53;;;;;;;12.06;75.35;99075.69;2618759;54;20114;-65
2021/09/29 01:36:05;;;;;;;7.68;6.15;;;;;;;12.11;75.46;99080.38;2618616;54;20027;-64
2021/09/29 01:38:38;;;;;;;10.55;7.35;;;;;;;12.13;75.19;99078.38;2619234;39;20434;-65
2021/09/29 01:41:08;;;;;;;8.82;6.30;;;;;;;12.03;75.19;99089.31;2618486;54;20153;-65
2021/09/29 01:43:40;;;;;;;9.38;7.18;;;;;;;12.01;75.23;99080.75;2618360;47;20029;-64
2021/09/29 01:46:10;;;;;;;14.13;7.10;;;;;;;11.97;75.40;99078.69;2618689;54;20034;-65
2021/09/29 01:48:49;;;;;;;9.07;7.13;;;;;;;11.93;75.65;99080.09;2618047;54;20110;-65
2021/09/29 01:51:21;;;;;;;10.88;6.75;;;;;;;11.87;75.49;99079.00;2617923;47;20033;-66
2021/09/29 01:53:52;;;;;;;12.25;6.30;;;;;;;11.86;75.96;99077.38;2617774;54;20082;-66
2021/09/29 01:56:23;;;;;;;8.25;7.13;;;;;;;11.87;75.61;99079.00;2618104;54;20018;-66
2021/09/29 01:58:55;;;;;;;8.63;7.47;;;;;;;11.85;75.98;99076.56;2618077;54;20573;-65
2021/09/29 02:01:25;;;;;;;7.93;6.78;;;;;;;11.80;75.91;99073.66;2617990;54;20026;-66
2021/09/29 02:03:55;;;;;;;13.07;7.10;;;;;;;11.79;75.84;99077.28;2617537;54;20026;-65
2021/09/29 02:06:24;;;;;;;9.73;7.40;;;;;;;11.76;75.72;99075.06;2618597;54;20549;-65
2021/09/29 02:08:54;;;;;;;10.13;7.78;;;;;;;11.72;76.18;99065.88;2617951;46;20030;-65
2021/09/29 02:11:24;;;;;;;9.07;7.15;;;;;;;11.69;75.90;99068.88;2618550;54;20023;-65
2021/09/29 02:13:56;;;;;;;8.32;6.95;;;;;;;11.69;76.45;99071.53;2617735;54;20050;-65
2021/09/29 02:16:26;;;;;;;9.20;7.00;;;;;;;11.70;76.48;99069.72;2618140;54;20031;-65
2021/09/29 02:18:55;;;;;;;9.02;7.60;;;;;;;11.66;76.20;99075.38;2617988;54;20034;-65
2021/09/29 02:21:25;;;;;;;12.93;7.32;;;;;;;11.61;76.61;99067.19;2618080;54;20027;-65
2021/09/29 02:23:55;;;;;;;9.05;6.65;;;;;;;11.60;76.28;99076.16;2617899;54;20159;-65
2021/09/29 02:26:25;;;;;;;8.48;7.20;;;;;;;11.63;76.28;99083.72;2618224;54;20034;-65
2021/09/29 02:28:57;;;;;;;8.45;7.00;;;;;;;11.65;76.48;99072.94;2618509;54;20034;-65
2021/09/29 02:31:27;;;;;;;11.65;7.97;;;;;;;11.63;76.15;99074.94;2619869;39;20449;-65
2021/09/29 02:33:56;;;;;;;8.43;6.85;;;;;;;11.60;76.20;99075.34;2618718;47;20049;-65
2021/09/29 02:36:27;;;;;;;12.30;7.80;;;;;;;11.57;76.26;99071.25;2618962;47;20038;-65
2021/09/29 02:38:57;;;;;;;10.63;7.40;;;;;;;11.58;76.52;99066.75;2619411;39;20655;-65
2021/09/29 02:41:29;;;;;;;12.95;7.70;;;;;;;11.59;76.53;99076.34;2618544;54;20545;-65
2021/09/29 02:44:01;;;;;;;10.82;7.72;;;;;;;11.61;76.28;99071.69;2619192;54;20042;-65
2021/09/29 02:46:31;;;;;;;11.63;7.63;;;;;;;11.65;76.01;99072.94;2619037;54;20031;-65
2021/09/29 02:49:01;;;;;;;9.68;7.18;;;;;;;11.65;76.11;99078.22;2619037;54;20569;-65
2021/09/29 02:51:30;;;;;;;9.13;7.50;;;;;;;11.62;75.82;99091.84;2619090;54;20018;-65
2021/09/29 02:54:01;;;;;;;10.77;8.32;;;;;;;11.56;76.13;99090.81;2618974;39;20426;-65
2021/09/29 02:56:31;;;;;;;11.10;7.90;;;;;;;11.58;76.58;99091.41;2618554;54;20018;-65
2021/09/29 02:59:04;;;;;;;11.50;7.95;;;;;;;11.58;76.02;99094.06;2617980;47;20037;-65
2021/09/29 03:01:34;;;;;;;9.45;8.15;;;;;;;11.55;76.00;99096.25;2618815;54;20022;-65
2021/09/29 03:04:04;;;;;;;13.82;6.78;;;;;;;11.48;76.22;99096.22;2619300;39;20433;-65
2021/09/29 03:06:34;;;;;;;8.57;7.05;;;;;;;11.47;76.36;99105.19;2622241;54;20034;-65
2021/09/29 03:09:04;;;;;;;7.43;6.50;;;;;;;11.50;76.35;99112.72;2622063;54;20019;-65
2021/09/29 03:11:33;;;;;;;10.10;7.95;;;;;;;11.47;75.96;99105.19;2619683;54;20074;-65
2021/09/29 03:14:07;;;;;;;8.05;7.03;;;;;;;11.33;76.45;99101.59;2619674;39;20399;-65
2021/09/29 03:16:36;;;;;;;12.68;7.80;;;;;;;11.27;75.99;99106.84;2618447;54;20030;-66
2021/09/29 03:19:06;;;;;;;11.60;7.75;;;;;;;11.19;75.98;99104.31;2618226;54;20046;-65
2021/09/29 03:21:36;;;;;;;9.57;8.57;;;;;;;11.08;76.43;99106.44;2618115;47;20038;-66
2021/09/29 03:24:06;;;;;;;10.48;7.53;;;;;;;10.99;76.73;99112.88;2617626;54;20061;-66
2021/09/29 03:26:36;;;;;;;11.20;8.15;;;;;;;11.00;77.33;99114.50;2617969;54;20034;-65
2021/09/29 03:29:08;;;;;;;9.27;8.38;;;;;;;11.00;77.23;99106.56;2620108;39;20686;-66
2021/09/29 03:31:38;;;;;;;12.65;9.23;;;;;;;10.97;77.00;99106.13;2618668;47;20039;-65
2021/09/29 03:34:08;;;;;;;16.02;12.43;;;;;;;11.01;77.38;99123.25;2619008;54;20027;-65
2021/09/29 03:36:37;;;;;;;12.18;7.85;;;;;;;11.11;77.22;99110.56;2619115;54;20070;-66
2021/09/29 03:39:08;;;;;;;11.45;8.60;;;;;;;11.14;77.26;99118.94;2618885;54;20035;-66
2021/09/29 03:41:37;;;;;;;11.32;7.95;;;;;;;11.14;76.96;99118.94;2619206;39;20402;-66
2021/09/29 03:44:10;;;;;;;10.85;8.00;;;;;;;11.18;76.81;99121.19;2618977;54;20043;-64
2021/09/29 03:46:39;;;;;;;12.55;7.90;;;;;;;11.10;76.35;99111.53;2619338;54;20038;-64
2021/09/29 03:49:09;;;;;;;9.65;8.30;;;;;;;11.06;77.05;99108.47;2619037;54;20035;-65
2021/09/29 03:51:38;;;;;;;10.50;8.15;;;;;;;11.06;77.12;99104.97;2618467;47;20046;-65
2021/09/29 03:54:08;;;;;;;11.15;8.52;;;;;;;11.06;77.65;99113.78;2618006;46;20027;-65
2021/09/29 03:56:38;;;;;;;12.98;8.32;;;;;;;11.19;76.98;99104.31;2618942;54;20061;-65
2021/09/29 03:59:10;;;;;;;11.10;7.78;;;;;;;11.15;77.16;99107.34;2618732;39;20128;-67
2021/09/29 04:01:42;;;;;;;14.05;9.05;;;;;;;11.14;77.11;99099.56;2619101;54;20039;-65
2021/09/29 04:04:12;;;;;;;10.48;8.35;;;;;;;11.12;77.31;99098.94;2618949;54;20042;-64
2021/09/29 04:06:41;;;;;;;10.82;8.40;;;;;;;11.12;77.32;99096.31;2618715;54;20037;-64
2021/09/29 04:09:11;;;;;;;11.13;9.10;;;;;;;11.12;77.10;99083.06;2619049;54;20037;-64
2021/09/29 04:11:41;;;;;;;9.35;6.32;;;;;;;11.12;77.64;99088.38;2618552;47;20049;-65
2021/09/29 04:14:15;;;;;;;11.20;7.40;;;;;;;11.19;77.44;99093.75;2619242;39;20411;-65
2021/09/29 04:16:46;;;;;;;9.05;6.72;;;;;;;11.30;77.44;99094.03;2619348;54;20031;-64
2021/09/29 04:19:16;;;;;;;11.32;6.57;;;;;;;11.44;77.66;99102.91;2618565;54;20604;-64
2021/09/29 04:21:46;;;;;;;11.30;6.78;;;;;;;11.55;76.80;99105.06;2618652;54;20046;-64
2021/09/29 04:24:16;;;;;;;9.52;7.35;;;;;;;11.64;76.69;99105.72;2619045;54;20035;-65
2021/09/29 04:26:46;;;;;;;8.77;7.93;;;;;;;11.64;76.82;99111.03;2619054;54;20038;-64
2021/09/29 04:29:18;;;;;;;8.93;7.20;;;;;;;11.55;76.22;99098.91;2619433;54;20534;-64
2021/09/29 04:31:48;;;;;;;14.60;7.53;;;;;;;11.41;76.64;99100.63;2619345;54;20037;-64
2021/09/29 04:34:18;;;;;;;11.55;7.53;;;;;;;11.37;76.82;99097.56;2618854;54;20031;-65
2021/09/29 04:36:48;;;;;;;11.85;8.05;;;;;;;11.32;76.76;99101.78;2619758;54;20031;-64
2021/09/29 04:39:18;;;;;;;11.10;7.35;;;;;;;11.29;77.32;99097.69;2618653;54;20030;-65
2021/09/29 04:41:48;;;;;;;10.55;7.18;;;;;;;11.26;77.63;99110.47;2621540;54;20086;-64
2021/09/29 04:44:20;;;;;;;14.15;8.27;;;;;;;11.38;77.37;99107.13;2621002;47;20049;-64
2021/09/29 04:46:50;;;;;;;10.98;8.32;;;;;;;11.43;77.23;99117.16;2621672;54;20045;-66
2021/09/29 04:49:20;;;;;;;10.70;6.88;;;;;;;11.35;77.05;99117.31;2621626;46;20022;-64
2021/09/29 04:51:51;;;;;;;9.10;7.15;;;;;;;11.31;77.52;99113.41;2620542;39;20608;-64
2021/09/29 04:54:20;;;;;;;7.45;6.55;;;;;;;11.31;77.71;99113.41;2618929;54;20570;-64
2021/09/29 04:56:51;;;;;;;9.55;7.00;;;;;;;11.28;77.28;99113.75;2618305;54;20026;-64
2021/09/29 04:59:23;;;;;;;13.65;7.03;;;;;;;11.31;77.91;99116.03;2618281;54;20616;-63
2021/09/29 05:01:53;;;;;;;8.55;6.60;;;;;;;11.30;77.58;99114.38;2619063;54;20042;-64
2021/09/29 05:04:24;;;;;;;10.65;6.18;;;;;;;11.26;77.52;99111.28;2618654;54;20625;-64
2021/09/29 05:06:56;;;;;;;15.65;7.18;;;;;;;11.25;77.43;99120.25;2619609;54;20035;-63
2021/09/29 05:09:26;;;;;;;8.57;6.85;;;;;;;11.25;77.22;99133.47;2619225;47;20033;-64
2021/09/29 05:12:01;;;;;;;11.02;6.95;;;;;;;11.21;77.37;99124.28;2619518;54;20030;-64
2021/09/29 05:14:34;;;;;;;9.63;6.72;;;;;;;11.19;77.06;99128.94;2618835;47;20046;-64
2021/09/29 05:17:04;;;;;;;8.95;7.15;;;;;;;11.21;77.31;99126.09;2619153;54;20026;-64
2021/09/29 05:19:33;;;;;;;9.45;7.03;;;;;;;11.24;77.34;99120.44;2618990;54;20078;-64
2021/09/29 05:22:06;;;;;;;9.30;6.97;;;;;;;11.20;77.19;99130.59;2618484;47;20585;-65
2021/09/29 05:24:35;;;;;;;7.45;6.18;;;;;;;11.21;76.89;99126.91;2618871;54;20068;-65
2021/09/29 05:27:06;;;;;;;7.97;6.20;;;;;;;11.26;77.35;99126.34;2618652;46;20030;-66
2021/09/29 05:29:41;;;;;;;11.48;5.90;;;;;;;11.28;76.98;99134.94;2619282;54;20034;-66
2021/09/29 05:32:11;;;;;;;8.90;6.05;;;;;;;11.36;77.15;99132.16;2618894;54;20049;-66
2021/09/29 05:34:40;;;;;;;10.75;6.03;;;;;;;11.36;76.96;99132.16;2619333;54;20031;-66
2021/09/29 05:37:10;;;;;;;8.80;5.80;;;;;;;11.38;76.48;99127.47;2619386;54;20031;-64
2021/09/29 05:39:40;;;;;;;7.55;5.45;;;;;;;11.40;76.67;99122.84;2618653;39;20421;-64
2021/09/29 05:42:10;;;;;;;7.22;5.40;;;;;;;11.44;76.86;99121.44;2619206;54;20027;-65
2021/09/29 05:44:42;;;;;;;8.45;5.38;;;;;;;11.48;76.41;99116.59;2618860;54;20027;-66
2021/09/29 05:47:12;;;;;;;9.98;5.40;;;;;;;11.49;76.75;99121.69;2618860;54;20033;-66
2021/09/29 05:49:41;;;;;;;8.65;5.38;;;;;;;11.52;76.07;99123.97;2618024;54;20038;-67
2021/09/29 05:52:11;;;;;;;9.00;5.35;;;;;;;11.56;76.29;99124.41;2617962;47;20057;-65
2021/09/29 05:54:41;;;;;;;7.10;5.10;;;;;;;11.60;76.07;99123.00;2618488;39;20399;-64
2021/09/29 05:57:13;;;;;;;10.20;5.30;;;;;;;11.64;75.99;99118.97;2619731;54;20158;-64
2021/09/29 05:59:46;;;;;;;9.13;5.53;;;;;;;11.69;75.72;99118.38;2619579;47;20038;-65
2021/09/29 06:02:16;;;;;;;13.60;5.55;;;;;;;11.72;75.79;99118.00;2619925;54;20019;-64
2021/09/29 06:04:48;;;;;;;9.68;4.93;;;;;;;11.74;75.99;99126.56;2619509;54;20050;-65
2021/09/29 06:07:18;;;;;;;9.10;5.05;;;;;;;11.74;75.79;99130.03;2620074;54;20027;-65
2021/09/29 06:09:48;;;;;;;9.45;4.90;;;;;;;11.75;75.75;99126.38;2622112;54;20025;-66
2021/09/29 06:12:17;;;;;;;8.52;4.10;;;;;;;11.81;75.49;99116.84;2618794;39;20222;-65
2021/09/29 06:14:53;;;;;;;6.38;4.40;;;;;;;11.89;75.63;99127.34;2618079;54;20564;-66
2021/09/29 06:17:25;;;;;;;6.35;4.10;;;;;;;11.96;75.24;99120.25;2618336;54;20812;-66
2021/09/29 06:19:56;;;;;;;7.32;3.60;;;;;;;12.02;75.11;99119.47;2618050;54;20033;-65
2021/09/29 06:22:25;;;;;;;6.75;4.30;;;;;;;12.06;74.86;99123.38;2619168;54;20034;-65
2021/09/29 06:24:55;;;;;;;7.68;4.20;;;;;;;12.07;74.92;99126.84;2618794;39;20466;-65
2021/09/29 06:27:25;;;;;;;7.43;3.70;;;;;;;12.10;75.19;99129.09;2618082;54;20026;-66
2021/09/29 06:29:57;;;;;;;6.28;3.20;;;;;;;12.13;74.77;99121.59;2618718;54;20030;-64
2021/09/29 06:32:27;;;;;;;7.68;3.72;;;;;;;12.17;75.15;99124.66;2618481;47;20033;-65
2021/09/29 06:34:56;;;;;;;3.67;3.00;;;;;;;12.27;74.44;99124.31;2618682;54;20034;-64
2021/09/29 06:37:26;;;;;;;9.07;3.47;;;;;;;12.34;74.45;99120.69;2617911;54;20018;-67
2021/09/29 06:39:56;;;;;;;5.68;3.22;;;;;;;12.42;74.36;99124.19;2617953;39;20457;-67
2021/09/29 06:42:25;;;;;;;5.72;3.42;;;;;;;12.44;74.11;99120.31;2618224;39;20113;-67
2021/09/29 06:44:57;;;;;;;8.55;3.60;;;;;;;12.49;73.76;99127.66;2617370;47;20027;-67
2021/09/29 06:47:27;;;;;;;8.88;3.33;;;;;;;12.56;73.70;99118.72;2617370;47;20081;-67
2021/09/29 06:49:57;;;;;;;5.10;3.00;;;;;;;12.62;73.47;99117.16;2617997;54;20038;-67
2021/09/29 06:52:26;;;;;;;8.35;2.92;;;;;;;12.67;73.49;99109.41;2617947;54;20031;-67
2021/09/29 06:54:56;;;;;;;10.13;6.30;;;;;;;12.76;73.44;99112.69;2617601;54;20065;-68
2021/09/29 06:57:25;;;;;;;6.13;4.38;;;;;;;12.83;73.28;99106.41;2617125;54;20035;-67
2021/09/29 06:59:58;;;;;;;4.07;3.00;;;;;;;12.88;73.13;99111.91;2618018;54;20026;-67
2021/09/29 07:02:27;;;;;;;5.55;3.17;;;;;;;12.94;73.01;99120.94;2617905;47;20037;-67
2021/09/29 07:04:57;;;;;;;5.63;3.10;;;;;;;13.02;72.63;99123.41;2618127;47;20042;-66
2021/09/29 07:07:27;;;;;;;3.38;2.20;;;;;;;13.10;72.23;99117.06;2619972;54;20150;-67
2021/09/29 07:09:56;;;;;;;3.45;2.38;;;;;;;13.13;72.15;99125.44;2622143;54;20022;-67
2021/09/29 07:12:26;;;;;;;5.05;2.63;;;;;;;13.21;72.32;99128.94;2622926;39;20437;-67
2021/09/29 07:14:58;;;;;;;3.13;2.28;;;;;;;13.42;72.29;99120.00;2622457;54;20031;-68
2021/09/29 07:17:27;;;;;;;9.90;3.35;;;;;;;13.63;71.40;99120.66;2622884;54;20057;-67
2021/09/29 07:19:58;;;;;;;5.15;2.33;;;;;;;13.68;71.26;99117.38;2622553;47;20038;-70
2021/09/29 07:22:28;;;;;;;6.18;2.55;;;;;;;13.74;71.27;99121.84;2623699;54;20041;-67
2021/09/29 07:24:58;;;;;;;4.88;2.40;;;;;;;13.80;71.38;99120.25;2623724;54;20033;-68
2021/09/29 07:27:27;;;;;;;4.20;2.17;;;;;;;13.84;70.99;99119.63;2623322;54;20039;-68
2021/09/29 07:30:00;;;;;;;3.92;2.20;;;;;;;13.75;70.77;99120.84;2622427;54;20074;-67
2021/09/29 07:32:29;;;;;;;5.32;2.63;;;;;;;13.73;71.33;99124.72;2619776;54;20034;-68
2021/09/29 07:34:59;;;;;;;3.47;2.67;;;;;;;13.75;71.37;99122.69;2617787;51;20057;-68
2021/09/29 07:37:29;;;;;;;4.38;2.40;;;;;;;13.79;70.76;99123.91;2618988;39;20407;-68
2021/09/29 07:39:59;;;;;;;2.83;1.52;;;;;;;13.77;70.28;99125.97;2618312;54;20041;-68
2021/09/29 07:42:28;;;;;;;5.05;1.85;;;;;;;13.72;70.75;99121.25;2618583;54;20026;-68
2021/09/29 07:45:00;;;;;;;3.60;1.65;;;;;;;13.71;70.54;99122.25;2618316;54;20035;-68
2021/09/29 07:47:31;;;;;;;5.40;1.75;;;;;;;13.70;70.57;99136.56;2618627;54;20018;-68
2021/09/29 07:50:00;;;;;;;9.93;2.33;;;;;;;13.76;70.38;99135.78;2618474;54;20045;-68
2021/09/29 07:52:30;;;;;;;4.63;2.05;;;;;;;13.82;70.24;99134.13;2617850;54;20042;-67
2021/09/29 07:54:59;;;;;;;3.25;1.70;;;;;;;13.85;69.88;99137.19;2618260;54;20030;-68
2021/09/29 07:57:43;;;;;;;3.72;2.08;;;;;;;13.91;69.61;99132.06;2618128;39;20426;-68
2021/09/29 08:00:18;;;;;;;2.75;1.80;;;;;;;13.90;69.70;99131.25;2618519;54;20576;-67
2021/09/29 08:02:48;;;;;;;7.10;2.13;;;;;;;13.91;69.82;99138.19;2617720;51;20572;-68
2021/09/29 08:05:20;;;;;;;4.32;1.75;;;;;;;13.87;69.94;99137.78;2617559;47;20042;-67
2021/09/29 08:07:52;;;;;;;3.97;2.00;;;;;;;13.81;70.20;99135.16;2617842;54;20031;-68
2021/09/29 08:10:22;;;;;;;5.50;1.90;;;;;;;13.88;70.31;99130.66;2617810;51;20019;-67
2021/09/29 08:12:55;;;;;;;4.68;1.95;;;;;;;13.88;70.77;99130.66;2621598;47;20027;-67
2021/09/29 08:15:28;;;;;;;6.10;1.75;;;;;;;13.94;70.58;99136.97;2621633;47;20037;-67
2021/09/29 08:17:57;;;;;;;3.65;1.50;;;;;;;13.98;70.83;99135.53;2622395;39;20449;-67
2021/09/29 08:20:33;;;;;;;4.70;1.63;;;;;;;13.98;71.20;99133.69;2623012;54;20037;-68
2021/09/29 08:23:06;;;;;;;4.57;1.90;;;;;;;14.02;71.26;99132.25;2620893;54;20038;-68
2021/09/29 08:25:56;;;;;;;4.07;1.85;;;;;;;14.08;71.20;99133.28;2617814;47;20562;-67
2021/09/29 08:28:42;;;;;;;4.47;2.03;;;;;;;14.09;71.20;99119.78;2618057;54;20030;-67
2021/09/29 08:31:22;;;;;;;4.10;1.60;;;;;;;14.15;71.68;99123.44;2618219;54;20057;-68
2021/09/29 08:34:04;;;;;;;7.65;1.50;;;;;;;14.11;71.26;99122.22;2618284;54;20081;-68
2021/09/29 08:36:39;;;;;;;5.35;2.00;;;;;;;14.15;71.26;99112.81;2618322;54;20027;-68
2021/09/29 08:39:13;;;;;;;7.70;2.00;;;;;;;14.26;70.82;99125.47;2618317;54;20031;-67
2021/09/29 08:41:58;;;;;;;5.88;1.83;;;;;;;14.38;70.19;99126.47;2618456;54;20019;-67
2021/09/29 08:44:31;;;;;;;5.43;1.98;;;;;;;14.53;70.51;99128.06;2618133;54;20038;-67
2021/09/29 08:47:10;;;;;;;7.00;2.17;;;;;;;14.63;69.60;99128.47;2617406;47;20053;-67
2021/09/29 08:52:38;;;;;;;4.80;1.70;;;;;;;14.61;69.14;99128.69;2618043;54;20022;-67
2021/09/29 09:17:08;;;;;;;4.97;1.80;;;;;;;14.91;69.87;99122.00;2616859;54;20030;-68
2021/09/29 09:19:40;;;;;;;5.97;2.38;;;;;;;15.04;69.96;99114.75;2618135;54;20030;-67
2021/09/29 09:22:12;;;;;;;6.78;2.20;;;;;;;15.08;69.51;99105.28;2618106;54;20038;-67
2021/09/29 09:24:42;;;;;;;6.10;2.17;;;;;;;15.25;68.67;99108.25;2617574;54;20530;-67
2021/09/29 09:27:15;;;;;;;3.97;1.77;;;;;;;15.32;68.53;99093.06;2617870;54;20034;-68
2021/09/29 09:29:46;;;;;;;6.88;1.90;;;;;;;15.46;68.29;99093.75;2618077;54;20035;-68
2021/09/29 09:32:18;;;;;;;7.22;1.90;;;;;;;15.49;67.77;99087.19;2617913;54;20030;-67
2021/09/29 09:34:50;;;;;;;5.60;1.75;;;;;;;15.57;67.58;99081.59;2617853;54;20065;-69
2021/09/29 09:37:20;;;;;;;3.83;1.98;;;;;;;15.72;66.68;99083.97;2617548;54;20046;-69
2021/09/29 09:39:49;;;;;;;4.85;2.10;;;;;;;15.74;66.45;99090.69;2617612;47;20026;-69
2021/09/29 09:42:19;;;;;;;5.90;2.17;;;;;;;15.80;66.48;99094.34;2617744;54;20026;-69
2021/09/29 09:44:48;;;;;;;6.32;2.22;;;;;;;15.82;65.99;99093.06;2617761;54;20026;-69
2021/09/29 09:47:21;;;;;;;11.93;2.40;;;;;;;15.80;65.80;99083.69;2617853;54;20026;-69
2021/09/29 09:49:56;;;;;;;7.82;1.92;;;;;;;15.85;65.88;99086.50;2617841;54;20030;-69
2021/09/29 09:52:30;;;;;;;4.70;1.70;;;;;;;15.99;65.53;99077.31;2617893;54;20045;-69
2021/09/29 09:55:06;;;;;;;4.72;1.85;;;;;;;16.23;65.17;99072.97;2618117;39;20464;-69
2021/09/29 09:57:39;;;;;;;3.45;1.67;;;;;;;16.33;64.32;99062.59;2617377;54;20038;-67
2021/09/29 10:00:11;;;;;;;9.95;1.98;;;;;;;16.43;64.43;99071.94;2617362;47;20026;-68
2021/09/29 10:02:43;;;;;;;4.72;1.67;;;;;;;16.56;64.00;99077.91;2617488;54;20034;-68
2021/09/29 10:05:21;;;;;;;6.55;1.73;;;;;;;16.43;63.65;99069.25;2617739;54;20035;-68
2021/09/29 10:07:51;;;;;;;6.95;1.95;;;;;;;16.32;63.89;99070.81;2617361;47;20061;-69
2021/09/29 10:10:27;;;;;;;3.65;1.60;;;;;;;16.36;64.08;99061.31;2618066;54;20034;-68
2021/09/29 10:26:07;;;;;;;3.83;1.63;;;;;;;16.49;66.15;99060.34;2618289;39;20437;-69
2021/09/29 10:27:06;;;;;;;9.27;2.22;;;;;;;16.45;67.01;99052.00;2618285;54;20026;-68
2021/09/29 10:29:43;;;;;;;8.88;1.98;;;;;;;16.49;67.04;99058.53;2617788;47;20042;-67
2021/09/29 10:32:20;;;;;;;3.13;1.75;;;;;;;16.39;67.03;99057.41;2621642;54;20034;-68
2021/09/29 10:35:09;;;;;;;5.63;2.10;;;;;;;16.28;68.07;99064.28;2621565;39;20429;-68
2021/09/29 10:40:55;;;;;;;3.42;1.85;;;;;;;15.78;69.78;99093.75;2617184;54;20026;-69
2021/09/29 10:43:30;;;;;;;5.50;2.20;;;;;;;15.57;71.22;99089.59;2617427;47;20034;-68
2021/09/29 10:46:09;;;;;;;2.78;1.80;;;;;;;15.51;71.87;99074.47;2618164;54;20057;-68
2021/09/29 10:49:05;;;;;;;4.00;1.90;;;;;;;15.45;72.26;99073.50;2618177;54;20046;-70
2021/09/29 11:27:46;;;;;;;4.63;1.35;;;;;;;14.05;74.34;99123.06;2618166;39;20407;-70
2021/09/29 11:30:22;;;;;;;2.45;0.82;;;;;;;13.97;74.38;99131.25;2618503;54;20018;-69
2021/09/29 11:32:56;;;;;;;1.13;0.80;;;;;;;13.94;74.79;99136.97;2624497;39;20442;-69
2021/09/29 11:35:36;;;;;;;2.60;1.52;;;;;;;13.96;75.38;99124.28;2622300;54;20534;-69
2021/09/29 11:38:26;;;;;;;3.95;0.90;;;;;;;13.99;74.93;99108.75;2623644;54;20042;-68
2021/09/29 12:08:41;;;;;;;1.20;0.88;;;;;;;15.55;73.18;99111.13;2618894;54;20025;-69
2021/09/29 12:11:14;;;;;;;2.08;0.80;;;;;;;15.73;72.75;99110.38;2618613;54;20027;-68
2021/09/29 12:13:51;;;;;;;1.75;0.95;;;;;;;16.01;72.58;99088.59;2618822;47;20030;-68
2021/09/29 12:16:32;;;;;;;1.08;0.80;;;;;;;16.16;71.25;99085.56;2619178;54;20038;-69
2021/09/29 12:19:07;;;;;;;1.10;1.00;;;;;;;16.06;71.30;99111.94;2623631;54;20557;-69
2021/09/29 12:21:42;;;;;;;0.98;0.75;;;;;;;15.74;71.08;99111.19;2625687;54;20070;-69
2021/09/29 12:24:14;;;;;;;1.25;0.88;;;;;;;15.56;70.22;99117.28;2624631;54;20042;-68
2021/09/29 12:26:48;;;;;;;2.90;1.40;;;;;;;15.38;70.83;99131.31;2618783;47;20034;-68
2021/09/29 12:29:26;;;;;;;1.27;1.00;;;;;;;15.31;71.37;99128.72;2619331;54;20042;-69
2021/09/29 12:32:13;;;;;;;1.98;1.30;;;;;;;15.36;70.79;99133.41;2620364;54;20612;-68
2021/09/29 12:35:00;;;;;;;2.13;1.08;;;;;;;15.21;69.39;99139.00;2618513;54;20033;-68
2021/09/29 12:37:33;;;;;;;2.35;1.20;;;;;;;15.18;68.84;99141.28;2618914;54;20110;-68
2021/09/29 18:41:12;;;;;;;2.42;1.25;;;;;;;12.29;57.46;99645.34;2619904;39;20451;-70
2021/09/29 18:43:42;;;;;;;2.15;1.02;;;;;;;12.33;57.40;99648.47;2620652;39;20422;-70
2021/09/29 18:46:12;;;;;;;2.25;1.50;;;;;;;12.31;57.37;99661.88;2622745;47;20069;-70
2021/09/29 18:48:42;;;;;;;2.42;1.25;;;;;;;12.36;57.12;99659.50;2623104;54;20137;-70
2021/09/29 18:51:13;;;;;;;4.32;1.30;;;;;;;12.37;57.63;99661.16;2623402;54;20576;-70
2021/09/29 18:53:54;;;;;;;2.78;1.10;;;;;;;12.35;57.49;99665.81;2623207;54;20545;-70
2021/09/29 18:56:47;;;;;;;3.22;1.30;;;;;;;12.36;57.58;99659.50;2623678;39;20434;-69
2021/09/29 19:07:28;;;;;;;4.07;1.65;;;;;;;12.33;57.70;99674.97;2620723;54;20573;-70
2021/09/29 19:10:03;;;;;;;1.17;1.08;;;;;;;12.30;58.39;99672.69;2622484;54;20062;-69
2021/09/29 19:12:36;;;;;;;3.80;1.88;;;;;;;12.28;58.70;99683.44;2623435;54;20019;-70
2021/09/29 19:15:06;;;;;;;2.63;1.00;;;;;;;12.22;58.96;99683.38;2623491;54;20027;-69
2021/09/29 19:17:36;;;;;;;2.97;1.25;;;;;;;12.20;58.73;99685.38;2623420;54;20585;-70
2021/09/29 19:20:09;;;;;;;3.30;1.35;;;;;;;12.21;58.92;99685.19;2622729;54;20035;-69
2021/09/29 19:22:39;;;;;;;2.25;0.95;;;;;;;12.23;59.10;99688.47;2622525;54;20027;-71
2021/09/29 19:25:10;;;;;;;4.10;0.90;;;;;;;12.23;59.02;99700.91;2622268;54;20031;-70
2021/09/29 19:27:47;;;;;;;5.10;1.95;;;;;;;12.26;59.21;99698.72;2621966;54;20030;-70
2021/09/29 19:30:17;;;;;;;3.83;1.20;;;;;;;12.24;58.66;99697.25;2621883;54;20030;-71
2021/09/29 19:32:53;;;;;;;2.38;1.40;;;;;;;12.22;58.64;99697.44;2622856;39;20387;-71
2021/09/29 19:35:23;;;;;;;6.55;1.65;;;;;;;12.17;58.96;99707.78;2622490;54;20045;-70
2021/09/29 19:37:53;;;;;;;2.17;1.33;;;;;;;12.12;58.63;99704.81;2622039;54;20030;-70
2021/09/29 19:40:24;;;;;;;1.75;1.33;;;;;;;12.11;58.60;99714.59;2622072;47;20030;-69
2021/09/29 19:42:56;;;;;;;4.05;1.58;;;;;;;12.17;58.88;99709.59;2622551;54;20045;-69
2021/09/29 19:45:26;;;;;;;2.17;1.60;;;;;;;12.15;58.89;99715.88;2621512;47;20027;-70
2021/09/29 19:48:02;;;;;;;5.50;2.30;;;;;;;12.15;58.66;99712.41;2623032;39;20441;-70